^^
Station Historical Data
Daily Summary for August 5, 2017 Units:  Both    English   Metric
« Previous Day
Next Day »
Daily Weekly Monthly Yearly Custom
  High: Low: Average:
Temperature: 75.9 °F /  24.4 °C 45.7 °F /  7.6 °C 59.7 °F /  15.4 °C
Dew Point: 27.7 °F /  -2.4 °C 13.1 °F /  -10.5 °C 22 °F /  -5.6 °C
Humidity: 45% 12% 26%
Wind Speed: 6.0mph /  9.7km/h - 0.4mph /  0.6km/h
Wind Gust: 9.0mph /  14.5km/h - -
Wind- - SSW
Pressure: 30.36 in /  1028 hPa 30.23 in /  1023.6 hPa -
Precipitation: 0.00 in /  0 mm    
Historical Graphs
 
 
Tabular Data for August 5, 2017
Time Temperature Dew Point Pressure Wind Wind Speed Wind Gust Humidity Rainfall Rate (Hourly) solar Conditions
00:05 49.5 °F /  9.7 °C 26.8 °F /  -2.9 °C 30.31in /  1026.3hPa Calm     41% 0.00in /  0mm 0.0 W/m2
00:11 49.3 °F /  9.6 °C 26.6 °F /  -3 °C 30.31in /  1026.3hPa Calm     41% 0.00in /  0mm 0.0 W/m2
00:17 48.9 °F /  9.4 °C 26.8 °F /  -2.9 °C 30.31in /  1026.3hPa Calm     42% 0.00in /  0mm 0.0 W/m2
00:23 48.7 °F /  9.3 °C 26.6 °F /  -3 °C 30.31in /  1026.3hPa Calm     42% 0.00in /  0mm 0.0 W/m2
00:30 48.4 °F /  9.1 °C 27.0 °F /  -2.8 °C 30.31in /  1026.3hPa Calm     43% 0.00in /  0mm 0.0 W/m2
00:36 48.0 °F /  8.9 °C 26.6 °F /  -3 °C 30.31in /  1026.3hPa Calm   1.0mph /  1.6km/h 43% 0.00in /  0mm 0.0 W/m2
00:42 48.0 °F /  8.9 °C 26.1 °F /  -3.3 °C 30.31in /  1026.3hPa Calm     42% 0.00in /  0mm 0.0 W/m2
00:48 47.8 °F /  8.8 °C 25.9 °F /  -3.4 °C 30.31in /  1026.3hPa Calm     42% 0.00in /  0mm 0.0 W/m2
00:54 47.7 °F /  8.7 °C 26.2 °F /  -3.2 °C 30.31in /  1026.3hPa Calm     43% 0.00in /  0mm 0.0 W/m2
01:00 47.5 °F /  8.6 °C 25.5 °F /  -3.6 °C 30.30in /  1026hPa Calm     42% 0.00in /  0mm 0.0 W/m2
01:06 47.3 °F /  8.5 °C 26.4 °F /  -3.1 °C 30.30in /  1026hPa Calm     44% 0.00in /  0mm 0.0 W/m2
01:13 47.1 °F /  8.4 °C 26.8 °F /  -2.9 °C 30.30in /  1026hPa Calm     45% 0.00in /  0mm 0.0 W/m2
01:19 46.9 °F /  8.3 °C 26.2 °F /  -3.2 °C 30.30in /  1026hPa Calm     44% 0.00in /  0mm 0.0 W/m2
01:25 46.8 °F /  8.2 °C 25.5 °F /  -3.6 °C 30.30in /  1026hPa Calm     43% 0.00in /  0mm 0.0 W/m2
01:31 46.6 °F /  8.1 °C 25.9 °F /  -3.4 °C 30.30in /  1026hPa Calm     44% 0.00in /  0mm 0.0 W/m2
01:37 46.4 °F /  8 °C 25.7 °F /  -3.5 °C 30.29in /  1025.6hPa Calm     44% 0.00in /  0mm 0.0 W/m2
01:43 46.0 °F /  7.8 °C 24.8 °F /  -4 °C 30.29in /  1025.6hPa Calm     43% 0.00in /  0mm 0.0 W/m2
01:49 46.0 °F /  7.8 °C 24.8 °F /  -4 °C 30.29in /  1025.6hPa Calm     43% 0.00in /  0mm 0.0 W/m2
01:55 45.9 °F /  7.7 °C 24.6 °F /  -4.1 °C 30.29in /  1025.6hPa Calm     43% 0.00in /  0mm 0.0 W/m2
02:02 45.7 °F /  7.6 °C 24.4 °F /  -4.2 °C 30.28in /  1025.3hPa Calm     43% 0.00in /  0mm 0.0 W/m2
02:08 45.7 °F /  7.6 °C 24.4 °F /  -4.2 °C 30.28in /  1025.3hPa Calm     43% 0.00in /  0mm 0.0 W/m2
02:14 45.9 °F /  7.7 °C 24.6 °F /  -4.1 °C 30.28in /  1025.3hPa Calm   1.0mph /  1.6km/h 43% 0.00in /  0mm 0.0 W/m2
02:20 46.9 °F /  8.3 °C 23.2 °F /  -4.9 °C 30.28in /  1025.3hPa Calm   1.0mph /  1.6km/h 39% 0.00in /  0mm 0.0 W/m2
02:26 48.7 °F /  9.3 °C 23.5 °F /  -4.7 °C 30.28in /  1025.3hPa ESE 0.9mph /  1.4km/h 4.0mph /  6.4km/h 37% 0.00in /  0mm 0.0 W/m2
02:32 50.4 °F /  10.2 °C 23.7 °F /  -4.6 °C 30.28in /  1025.3hPa Calm   3.0mph /  4.8km/h 35% 0.00in /  0mm 0.0 W/m2
02:38 52.3 °F /  11.3 °C 24.1 °F /  -4.4 °C 30.28in /  1025.3hPa SSE 2.9mph /  4.7km/h 6.0mph /  9.7km/h 33% 0.00in /  0mm 0.0 W/m2
02:44 53.8 °F /  12.1 °C 23.9 °F /  -4.5 °C 30.28in /  1025.3hPa Calm   4.0mph /  6.4km/h 31% 0.00in /  0mm 0.0 W/m2
02:50 54.7 °F /  12.6 °C 23.9 °F /  -4.5 °C 30.28in /  1025.3hPa SE 2.0mph /  3.2km/h 6.0mph /  9.7km/h 30% 0.00in /  0mm 0.0 W/m2
02:57 55.2 °F /  12.9 °C 23.5 °F /  -4.7 °C 30.28in /  1025.3hPa SSE 2.0mph /  3.2km/h 8.0mph /  12.9km/h 29% 0.00in /  0mm 0.0 W/m2
03:03 55.6 °F /  13.1 °C 23.9 °F /  -4.5 °C 30.28in /  1025.3hPa Calm   2.0mph /  3.2km/h 29% 0.00in /  0mm 0.0 W/m2
03:09 55.2 °F /  12.9 °C 23.5 °F /  -4.7 °C 30.28in /  1025.3hPa Calm   1.0mph /  1.6km/h 29% 0.00in /  0mm 0.0 W/m2
03:15 55.0 °F /  12.8 °C 23.4 °F /  -4.8 °C 30.28in /  1025.3hPa Calm     29% 0.00in /  0mm 0.0 W/m2
03:21 54.7 °F /  12.6 °C 23.0 °F /  -5 °C 30.28in /  1025.3hPa Calm     29% 0.00in /  0mm 0.0 W/m2
03:27 54.1 °F /  12.3 °C 23.4 °F /  -4.8 °C 30.28in /  1025.3hPa Calm     30% 0.00in /  0mm 0.0 W/m2
03:33 53.4 °F /  11.9 °C 23.5 °F /  -4.7 °C 30.28in /  1025.3hPa Calm     31% 0.00in /  0mm 0.0 W/m2
03:39 52.9 °F /  11.6 °C 23.9 °F /  -4.5 °C 30.28in /  1025.3hPa Calm     32% 0.00in /  0mm 0.0 W/m2
03:45 52.2 °F /  11.2 °C 23.2 °F /  -4.9 °C 30.28in /  1025.3hPa Calm     32% 0.00in /  0mm 0.0 W/m2
03:52 51.4 °F /  10.8 °C 23.4 °F /  -4.8 °C 30.29in /  1025.6hPa Calm     33% 0.00in /  0mm 0.0 W/m2
03:58 50.7 °F /  10.4 °C 23.4 °F /  -4.8 °C 30.28in /  1025.3hPa Calm     34% 0.00in /  0mm 0.0 W/m2
04:04 50.2 °F /  10.1 °C 23.5 °F /  -4.7 °C 30.29in /  1025.6hPa Calm     35% 0.00in /  0mm 0.0 W/m2
04:10 49.5 °F /  9.7 °C 23.5 °F /  -4.7 °C 30.29in /  1025.6hPa Calm     36% 0.00in /  0mm 0.0 W/m2
04:20 48.7 °F /  9.3 °C 23.5 °F /  -4.7 °C 30.28in /  1025.3hPa Calm     37% 0.00in /  0mm 0.0 W/m2
04:22 48.7 °F /  9.3 °C 23.5 °F /  -4.7 °C 30.28in /  1025.3hPa Calm     37% 0.00in /  0mm 0.0 W/m2
04:28 48.4 °F /  9.1 °C 23.9 °F /  -4.5 °C 30.28in /  1025.3hPa Calm     38% 0.00in /  0mm 0.0 W/m2
04:32 48.0 °F /  8.9 °C 23.5 °F /  -4.7 °C 30.28in /  1025.3hPa Calm     38% 0.00in /  0mm 0.0 W/m2
04:38 48.0 °F /  8.9 °C 23.0 °F /  -5 °C 30.28in /  1025.3hPa Calm     37% 0.00in /  0mm 0.0 W/m2
04:45 48.0 °F /  8.9 °C 23.0 °F /  -5 °C 30.29in /  1025.6hPa Calm   1.0mph /  1.6km/h 37% 0.00in /  0mm 0.0 W/m2
04:51 48.0 °F /  8.9 °C 23.0 °F /  -5 °C 30.29in /  1025.6hPa Calm   1.0mph /  1.6km/h 37% 0.00in /  0mm 0.0 W/m2
04:57 48.0 °F /  8.9 °C 23.0 °F /  -5 °C 30.29in /  1025.6hPa Calm   1.0mph /  1.6km/h 37% 0.00in /  0mm 0.0 W/m2
05:03 48.0 °F /  8.9 °C 23.0 °F /  -5 °C 30.29in /  1025.6hPa Calm   1.0mph /  1.6km/h 37% 0.00in /  0mm 0.0 W/m2
05:09 48.0 °F /  8.9 °C 23.0 °F /  -5 °C 30.29in /  1025.6hPa Calm     37% 0.00in /  0mm 0.0 W/m2
05:13 47.8 °F /  8.8 °C 22.8 °F /  -5.1 °C 30.29in /  1025.6hPa Calm     37% 0.00in /  0mm 0.0 W/m2
05:19 48.0 °F /  8.9 °C 23.0 °F /  -5 °C 30.30in /  1026hPa Calm     37% 0.00in /  0mm 0.0 W/m2
05:26 47.8 °F /  8.8 °C 22.8 °F /  -5.1 °C 30.30in /  1026hPa Calm     37% 0.00in /  0mm 0.0 W/m2
05:34 47.5 °F /  8.6 °C 23.2 °F /  -4.9 °C 30.30in /  1026hPa Calm     38% 0.00in /  0mm 0.0 W/m2
05:40 47.1 °F /  8.4 °C 22.8 °F /  -5.1 °C 30.30in /  1026hPa Calm     38% 0.00in /  0mm 0.0 W/m2
05:46 46.9 °F /  8.3 °C 22.6 °F /  -5.2 °C 30.30in /  1026hPa Calm     38% 0.00in /  0mm 0.0 W/m2
05:52 46.8 °F /  8.2 °C 23.2 °F /  -4.9 °C 30.30in /  1026hPa Calm     39% 0.00in /  0mm 0.0 W/m2
05:58 46.8 °F /  8.2 °C 23.2 °F /  -4.9 °C 30.30in /  1026hPa Calm   4.0mph /  6.4km/h 39% 0.00in /  0mm 0.0 W/m2
06:04 46.8 °F /  8.2 °C 23.2 °F /  -4.9 °C 30.30in /  1026hPa East 0.9mph /  1.4km/h 1.0mph /  1.6km/h 39% 0.00in /  0mm 0.0 W/m2
06:11 46.8 °F /  8.2 °C 23.2 °F /  -4.9 °C 30.31in /  1026.3hPa Calm     39% 0.00in /  0mm 0.0 W/m2
06:17 46.8 °F /  8.2 °C 23.2 °F /  -4.9 °C 30.31in /  1026.3hPa Calm     39% 0.00in /  0mm 0.0 W/m2
06:23 46.8 °F /  8.2 °C 22.5 °F /  -5.3 °C 30.31in /  1026.3hPa Calm   1.0mph /  1.6km/h 38% 0.00in /  0mm 0.0 W/m2
06:29 46.8 °F /  8.2 °C 23.2 °F /  -4.9 °C 30.31in /  1026.3hPa Calm     39% 0.00in /  0mm 5.0 W/m2
06:35 46.8 °F /  8.2 °C 23.2 °F /  -4.9 °C 30.31in /  1026.3hPa Calm     39% 0.00in /  0mm 9.0 W/m2
06:41 46.8 °F /  8.2 °C 23.7 °F /  -4.6 °C 30.31in /  1026.3hPa Calm     40% 0.00in /  0mm 12.0 W/m2
06:48 46.4 °F /  8 °C 23.9 °F /  -4.5 °C 30.32in /  1026.6hPa Calm     41% 0.00in /  0mm 14.0 W/m2
06:54 46.2 °F /  7.9 °C 23.9 °F /  -4.5 °C 30.32in /  1026.6hPa Calm     41% 0.00in /  0mm 16.0 W/m2
07:00 46.0 °F /  7.8 °C 23.7 °F /  -4.6 °C 30.32in /  1026.6hPa Calm   1.0mph /  1.6km/h 41% 0.00in /  0mm 19.0 W/m2
07:06 46.2 °F /  7.9 °C 23.2 °F /  -4.9 °C 30.33in /  1027hPa Calm     40% 0.00in /  0mm 21.0 W/m2
07:08 46.2 °F /  7.9 °C 23.9 °F /  -4.5 °C 30.33in /  1027hPa Calm     41% 0.00in /  0mm 21.0 W/m2
07:14 46.8 °F /  8.2 °C 24.8 °F /  -4 °C 30.33in /  1027hPa Calm     42% 0.00in /  0mm 23.0 W/m2
07:20 47.3 °F /  8.5 °C 24.3 °F /  -4.3 °C 30.34in /  1027.3hPa Calm   3.0mph /  4.8km/h 40% 0.00in /  0mm 25.0 W/m2
07:26 48.0 °F /  8.9 °C 24.3 °F /  -4.3 °C 30.34in /  1027.3hPa Calm     39% 0.00in /  0mm 26.0 W/m2
07:33 48.9 °F /  9.4 °C 24.4 °F /  -4.2 °C 30.34in /  1027.3hPa Calm     38% 0.00in /  0mm 28.0 W/m2
07:39 50.4 °F /  10.2 °C 24.4 °F /  -4.2 °C 30.34in /  1027.3hPa Calm   3.0mph /  4.8km/h 36% 0.00in /  0mm 30.0 W/m2
07:45 51.6 °F /  10.9 °C 24.8 °F /  -4 °C 30.34in /  1027.3hPa Calm   1.0mph /  1.6km/h 35% 0.00in /  0mm 32.0 W/m2
07:51 52.5 °F /  11.4 °C 25.0 °F /  -3.9 °C 30.34in /  1027.3hPa Calm     34% 0.00in /  0mm 33.0 W/m2
07:57 53.8 °F /  12.1 °C 25.3 °F /  -3.7 °C 30.35in /  1027.7hPa Calm   3.0mph /  4.8km/h 33% 0.00in /  0mm 35.0 W/m2
08:03 55.0 °F /  12.8 °C 25.0 °F /  -3.9 °C 30.35in /  1027.7hPa Calm   3.0mph /  4.8km/h 31% 0.00in /  0mm 37.0 W/m2
08:10 55.9 °F /  13.3 °C 25.7 °F /  -3.5 °C 30.35in /  1027.7hPa Calm     31% 0.00in /  0mm 39.0 W/m2
08:16 56.7 °F /  13.7 °C 25.5 °F /  -3.6 °C 30.35in /  1027.7hPa Calm     30% 0.00in /  0mm 40.0 W/m2
08:22 57.0 °F /  13.9 °C 25.0 °F /  -3.9 °C 30.35in /  1027.7hPa Calm   1.0mph /  1.6km/h 29% 0.00in /  0mm 44.0 W/m2
08:28 58.1 °F /  14.5 °C 26.1 °F /  -3.3 °C 30.36in /  1028hPa Calm     29% 0.00in /  0mm 385.0 W/m2
08:34 59.2 °F /  15.1 °C 26.1 °F /  -3.3 °C 30.36in /  1028hPa Calm     28% 0.00in /  0mm 410.0 W/m2
08:40 60.3 °F /  15.7 °C 26.1 °F /  -3.3 °C 30.36in /  1028hPa Calm     27% 0.00in /  0mm 427.0 W/m2
08:46 61.3 °F /  16.3 °C 25.2 °F /  -3.8 °C 30.36in /  1028hPa Calm     25% 0.00in /  0mm 450.0 W/m2
08:53 62.6 °F /  17 °C 26.2 °F /  -3.2 °C 30.36in /  1028hPa Calm     25% 0.00in /  0mm 469.0 W/m2
08:59 63.0 °F /  17.2 °C 25.5 °F /  -3.6 °C 30.36in /  1028hPa Calm     24% 0.00in /  0mm 487.0 W/m2
09:05 63.1 °F /  17.3 °C 26.8 °F /  -2.9 °C 30.36in /  1028hPa WSW 0.9mph /  1.4km/h 1.0mph /  1.6km/h 25% 0.00in /  0mm 504.0 W/m2
09:11 63.3 °F /  17.4 °C 25.9 °F /  -3.4 °C 30.36in /  1028hPa Calm   1.0mph /  1.6km/h 24% 0.00in /  0mm 522.0 W/m2
09:17 63.9 °F /  17.7 °C 26.4 °F /  -3.1 °C 30.36in /  1028hPa Calm     24% 0.00in /  0mm 540.0 W/m2
09:23 65.1 °F /  18.4 °C 26.4 °F /  -3.1 °C 30.36in /  1028hPa Calm   1.0mph /  1.6km/h 23% 0.00in /  0mm 554.0 W/m2
09:29 66.0 °F /  18.9 °C 27.1 °F /  -2.7 °C 30.35in /  1027.7hPa Calm   1.0mph /  1.6km/h 23% 0.00in /  0mm 570.0 W/m2
09:35 66.9 °F /  19.4 °C 26.8 °F /  -2.9 °C 30.35in /  1027.7hPa Calm   3.0mph /  4.8km/h 22% 0.00in /  0mm 587.0 W/m2
09:41 67.5 °F /  19.7 °C 26.2 °F /  -3.2 °C 30.35in /  1027.7hPa Calm   1.0mph /  1.6km/h 21% 0.00in /  0mm 601.0 W/m2
09:47 67.8 °F /  19.9 °C 26.4 °F /  -3.1 °C 30.35in /  1027.7hPa Calm     21% 0.00in /  0mm 613.0 W/m2
09:53 68.2 °F /  20.1 °C 26.8 °F /  -2.9 °C 30.35in /  1027.7hPa Calm   2.0mph /  3.2km/h 21% 0.00in /  0mm 626.0 W/m2
09:59 68.7 °F /  20.4 °C 27.1 °F /  -2.7 °C 30.35in /  1027.7hPa Calm   1.0mph /  1.6km/h 21% 0.00in /  0mm 638.0 W/m2
10:05 69.3 °F /  20.7 °C 27.7 °F /  -2.4 °C 30.35in /  1027.7hPa Calm   1.0mph /  1.6km/h 21% 0.00in /  0mm 654.0 W/m2
10:11 69.8 °F /  21 °C 27.0 °F /  -2.8 °C 30.35in /  1027.7hPa Calm   2.0mph /  3.2km/h 20% 0.00in /  0mm 663.0 W/m2
10:17 70.2 °F /  21.2 °C 27.1 °F /  -2.7 °C 30.34in /  1027.3hPa Calm   5.0mph /  8km/h 20% 0.00in /  0mm 675.0 W/m2
10:23 70.3 °F /  21.3 °C 26.1 °F /  -3.3 °C 30.34in /  1027.3hPa NNE 2.0mph /  3.2km/h 3.0mph /  4.8km/h 19% 0.00in /  0mm 686.0 W/m2
10:29 70.9 °F /  21.6 °C 26.6 °F /  -3 °C 30.34in /  1027.3hPa WNW 0.9mph /  1.4km/h 2.0mph /  3.2km/h 19% 0.00in /  0mm 691.0 W/m2
10:35 70.5 °F /  21.4 °C 26.2 °F /  -3.2 °C 30.34in /  1027.3hPa Calm   3.0mph /  4.8km/h 19% 0.00in /  0mm 701.0 W/m2
10:41 70.7 °F /  21.5 °C 26.4 °F /  -3.1 °C 30.34in /  1027.3hPa Calm   2.0mph /  3.2km/h 19% 0.00in /  0mm 712.0 W/m2
10:47 70.9 °F /  21.6 °C 25.3 °F /  -3.7 °C 30.33in /  1027hPa NW 6.0mph /  9.7km/h 6.0mph /  9.7km/h 18% 0.00in /  0mm 722.0 W/m2
10:53 71.4 °F /  21.9 °C 25.7 °F /  -3.5 °C 30.33in /  1027hPa Calm   4.0mph /  6.4km/h 18% 0.00in /  0mm 731.0 W/m2
10:59 72.0 °F /  22.2 °C 24.8 °F /  -4 °C 30.33in /  1027hPa Calm   1.0mph /  1.6km/h 17% 0.00in /  0mm 733.0 W/m2
11:05 72.1 °F /  22.3 °C 25.0 °F /  -3.9 °C 30.33in /  1027hPa North 4.9mph /  7.9km/h 6.0mph /  9.7km/h 17% 0.00in /  0mm 745.0 W/m2
11:11 72.0 °F /  22.2 °C 24.8 °F /  -4 °C 30.33in /  1027hPa Calm     17% 0.00in /  0mm 729.0 W/m2
11:17 72.0 °F /  22.2 °C 24.8 °F /  -4 °C 30.32in /  1026.6hPa NE 2.9mph /  4.7km/h 4.0mph /  6.4km/h 17% 0.00in /  0mm 751.0 W/m2
11:23 72.3 °F /  22.4 °C 26.4 °F /  -3.1 °C 30.32in /  1026.6hPa Calm   6.0mph /  9.7km/h 18% 0.00in /  0mm 761.0 W/m2
11:29 72.9 °F /  22.7 °C 25.5 °F /  -3.6 °C 30.32in /  1026.6hPa NW 2.0mph /  3.2km/h 3.0mph /  4.8km/h 17% 0.00in /  0mm 745.0 W/m2
11:35 72.9 °F /  22.7 °C 25.5 °F /  -3.6 °C 30.31in /  1026.3hPa Calm   4.0mph /  6.4km/h 17% 0.00in /  0mm 756.0 W/m2
11:41 73.4 °F /  23 °C 24.4 °F /  -4.2 °C 30.31in /  1026.3hPa SW 0.9mph /  1.4km/h 3.0mph /  4.8km/h 16% 0.00in /  0mm 761.0 W/m2
11:47 73.8 °F /  23.2 °C 23.2 °F /  -4.9 °C 30.31in /  1026.3hPa NW 2.9mph /  4.7km/h 7.0mph /  11.3km/h 15% 0.00in /  0mm 759.0 W/m2
11:53 73.8 °F /  23.2 °C 24.8 °F /  -4 °C 30.31in /  1026.3hPa WSW 2.0mph /  3.2km/h 6.0mph /  9.7km/h 16% 0.00in /  0mm 758.0 W/m2
11:59 73.0 °F /  22.8 °C 24.3 °F /  -4.3 °C 30.31in /  1026.3hPa Calm   7.0mph /  11.3km/h 16% 0.00in /  0mm 759.0 W/m2
12:05 72.7 °F /  22.6 °C 22.3 °F /  -5.4 °C 30.31in /  1026.3hPa Calm   3.0mph /  4.8km/h 15% 0.00in /  0mm 761.0 W/m2
12:11 73.0 °F /  22.8 °C 21.0 °F /  -6.1 °C 30.30in /  1026hPa NE 0.9mph /  1.4km/h 6.0mph /  9.7km/h 14% 0.00in /  0mm 763.0 W/m2
12:17 73.6 °F /  23.1 °C 21.4 °F /  -5.9 °C 30.30in /  1026hPa North 4.9mph /  7.9km/h 7.0mph /  11.3km/h 14% 0.00in /  0mm 759.0 W/m2
12:23 73.9 °F /  23.3 °C 21.7 °F /  -5.7 °C 30.29in /  1025.6hPa ENE 2.9mph /  4.7km/h 4.0mph /  6.4km/h 14% 0.00in /  0mm 765.0 W/m2
12:29 74.3 °F /  23.5 °C 20.3 °F /  -6.5 °C 30.29in /  1025.6hPa Calm   4.0mph /  6.4km/h 13% 0.00in /  0mm 752.0 W/m2
12:35 74.7 °F /  23.7 °C 18.7 °F /  -7.4 °C 30.28in /  1025.3hPa Calm     12% 0.00in /  0mm 745.0 W/m2
12:41 74.3 °F /  23.5 °C 20.3 °F /  -6.5 °C 30.28in /  1025.3hPa Calm   1.0mph /  1.6km/h 13% 0.00in /  0mm 740.0 W/m2
12:47 74.5 °F /  23.6 °C 22.1 °F /  -5.5 °C 30.28in /  1025.3hPa Calm   3.0mph /  4.8km/h 14% 0.00in /  0mm 733.0 W/m2
12:51 74.7 °F /  23.7 °C 20.5 °F /  -6.4 °C 30.28in /  1025.3hPa West 0.9mph /  1.4km/h 3.0mph /  4.8km/h 13% 0.00in /  0mm 729.0 W/m2
12:57 74.3 °F /  23.5 °C 20.3 °F /  -6.5 °C 30.27in /  1024.9hPa Calm   3.0mph /  4.8km/h 13% 0.00in /  0mm 722.0 W/m2
13:03 74.5 °F /  23.6 °C 20.5 °F /  -6.4 °C 30.27in /  1024.9hPa Calm   5.0mph /  8km/h 13% 0.00in /  0mm 712.0 W/m2
13:09 74.8 °F /  23.8 °C 20.7 °F /  -6.3 °C 30.26in /  1024.6hPa NNW 0.9mph /  1.4km/h 1.0mph /  1.6km/h 13% 0.00in /  0mm 703.0 W/m2
13:15 74.8 °F /  23.8 °C 22.5 °F /  -5.3 °C 30.26in /  1024.6hPa Calm   5.0mph /  8km/h 14% 0.00in /  0mm 691.0 W/m2
13:21 74.5 °F /  23.6 °C 20.5 °F /  -6.4 °C 30.26in /  1024.6hPa SW 0.9mph /  1.4km/h 4.0mph /  6.4km/h 13% 0.00in /  0mm 680.0 W/m2
13:27 73.9 °F /  23.3 °C 19.9 °F /  -6.7 °C 30.26in /  1024.6hPa WSW 2.9mph /  4.7km/h 9.0mph /  14.5km/h 13% 0.00in /  0mm 671.0 W/m2
13:33 73.0 °F /  22.8 °C 21.0 °F /  -6.1 °C 30.25in /  1024.3hPa Calm   5.0mph /  8km/h 14% 0.00in /  0mm 657.0 W/m2
13:39 73.2 °F /  22.9 °C 22.8 °F /  -5.1 °C 30.25in /  1024.3hPa South 0.9mph /  1.4km/h 2.0mph /  3.2km/h 15% 0.00in /  0mm 647.0 W/m2
13:45 73.8 °F /  23.2 °C 21.6 °F /  -5.8 °C 30.25in /  1024.3hPa Calm   2.0mph /  3.2km/h 14% 0.00in /  0mm 638.0 W/m2
13:51 74.1 °F /  23.4 °C 21.9 °F /  -5.6 °C 30.25in /  1024.3hPa Calm   2.0mph /  3.2km/h 14% 0.00in /  0mm 626.0 W/m2
13:57 74.5 °F /  23.6 °C 22.1 °F /  -5.5 °C 30.25in /  1024.3hPa Calm   5.0mph /  8km/h 14% 0.00in /  0mm 612.0 W/m2
14:03 74.5 °F /  23.6 °C 22.1 °F /  -5.5 °C 30.24in /  1023.9hPa SE 2.9mph /  4.7km/h 4.0mph /  6.4km/h 14% 0.00in /  0mm 599.0 W/m2
14:09 74.8 °F /  23.8 °C 22.5 °F /  -5.3 °C 30.24in /  1023.9hPa Calm   2.0mph /  3.2km/h 14% 0.00in /  0mm 582.0 W/m2
14:15 75.0 °F /  23.9 °C 20.8 °F /  -6.2 °C 30.24in /  1023.9hPa West 0.9mph /  1.4km/h 3.0mph /  4.8km/h 13% 0.00in /  0mm 571.0 W/m2
14:21 74.8 °F /  23.8 °C 22.5 °F /  -5.3 °C 30.24in /  1023.9hPa Calm   5.0mph /  8km/h 14% 0.00in /  0mm 557.0 W/m2
14:27 74.8 °F /  23.8 °C 20.7 °F /  -6.3 °C 30.23in /  1023.6hPa Calm   2.0mph /  3.2km/h 13% 0.00in /  0mm 541.0 W/m2
14:33 75.0 °F /  23.9 °C 22.6 °F /  -5.2 °C 30.23in /  1023.6hPa Calm   1.0mph /  1.6km/h 14% 0.00in /  0mm 529.0 W/m2
14:39 75.4 °F /  24.1 °C 22.8 °F /  -5.1 °C 30.23in /  1023.6hPa Calm   1.0mph /  1.6km/h 14% 0.00in /  0mm 513.0 W/m2
14:45 75.4 °F /  24.1 °C 21.2 °F /  -6 °C 30.23in /  1023.6hPa Calm     13% 0.00in /  0mm 494.0 W/m2
14:51 75.6 °F /  24.2 °C 21.2 °F /  -6 °C 30.23in /  1023.6hPa West 2.0mph /  3.2km/h 2.0mph /  3.2km/h 13% 0.00in /  0mm 475.0 W/m2
14:57 75.9 °F /  24.4 °C 21.6 °F /  -5.8 °C 30.23in /  1023.6hPa NNW 2.9mph /  4.7km/h 7.0mph /  11.3km/h 13% 0.00in /  0mm 455.0 W/m2
15:03 75.7 °F /  24.3 °C 21.4 °F /  -5.9 °C 30.23in /  1023.6hPa Calm   2.0mph /  3.2km/h 13% 0.00in /  0mm 439.0 W/m2
15:09 75.6 °F /  24.2 °C 21.2 °F /  -6 °C 30.23in /  1023.6hPa NNW 2.0mph /  3.2km/h 5.0mph /  8km/h 13% 0.00in /  0mm 418.0 W/m2
15:15 75.4 °F /  24.1 °C 21.2 °F /  -6 °C 30.23in /  1023.6hPa North 2.0mph /  3.2km/h 4.0mph /  6.4km/h 13% 0.00in /  0mm 399.0 W/m2
15:22 75.6 °F /  24.2 °C 21.2 °F /  -6 °C 30.23in /  1023.6hPa WSW 2.0mph /  3.2km/h 6.0mph /  9.7km/h 13% 0.00in /  0mm 380.0 W/m2
15:28 75.6 °F /  24.2 °C 21.2 °F /  -6 °C 30.23in /  1023.6hPa Calm   2.0mph /  3.2km/h 13% 0.00in /  0mm 359.0 W/m2
15:34 75.4 °F /  24.1 °C 21.2 °F /  -6 °C 30.23in /  1023.6hPa NE 0.9mph /  1.4km/h 6.0mph /  9.7km/h 13% 0.00in /  0mm 338.0 W/m2
15:40 75.0 °F /  23.9 °C 20.8 °F /  -6.2 °C 30.23in /  1023.6hPa NE 2.0mph /  3.2km/h 3.0mph /  4.8km/h 13% 0.00in /  0mm 316.0 W/m2
15:46 74.7 °F /  23.7 °C 20.5 °F /  -6.4 °C 30.23in /  1023.6hPa West 2.9mph /  4.7km/h 3.0mph /  4.8km/h 13% 0.00in /  0mm 297.0 W/m2
15:52 74.5 °F /  23.6 °C 22.1 °F /  -5.5 °C 30.23in /  1023.6hPa WSW 0.9mph /  1.4km/h 3.0mph /  4.8km/h 14% 0.00in /  0mm 127.0 W/m2
15:58 74.3 °F /  23.5 °C 20.3 °F /  -6.5 °C 30.23in /  1023.6hPa Calm   2.0mph /  3.2km/h 13% 0.00in /  0mm 54.0 W/m2
16:04 73.9 °F /  23.3 °C 19.9 °F /  -6.7 °C 30.23in /  1023.6hPa WSW 2.9mph /  4.7km/h 3.0mph /  4.8km/h 13% 0.00in /  0mm 51.0 W/m2
16:10 73.6 °F /  23.1 °C 21.4 °F /  -5.9 °C 30.23in /  1023.6hPa Calm   5.0mph /  8km/h 14% 0.00in /  0mm 49.0 W/m2
16:16 73.2 °F /  22.9 °C 21.2 °F /  -6 °C 30.23in /  1023.6hPa WSW 4.9mph /  7.9km/h 5.0mph /  8km/h 14% 0.00in /  0mm 46.0 W/m2
16:22 73.0 °F /  22.8 °C 21.0 °F /  -6.1 °C 30.23in /  1023.6hPa Calm   2.0mph /  3.2km/h 14% 0.00in /  0mm 54.0 W/m2
16:28 72.9 °F /  22.7 °C 20.8 °F /  -6.2 °C 30.23in /  1023.6hPa Calm   4.0mph /  6.4km/h 14% 0.00in /  0mm 56.0 W/m2
16:34 72.7 °F /  22.6 °C 20.7 °F /  -6.3 °C 30.23in /  1023.6hPa Calm   2.0mph /  3.2km/h 14% 0.00in /  0mm 37.0 W/m2
16:40 72.3 °F /  22.4 °C 20.5 °F /  -6.4 °C 30.24in /  1023.9hPa WSW 0.9mph /  1.4km/h 2.0mph /  3.2km/h 14% 0.00in /  0mm 33.0 W/m2
16:46 72.1 °F /  22.3 °C 20.3 °F /  -6.5 °C 30.24in /  1023.9hPa Calm   3.0mph /  4.8km/h 14% 0.00in /  0mm 46.0 W/m2
16:52 72.0 °F /  22.2 °C 20.1 °F /  -6.6 °C 30.24in /  1023.9hPa Calm   4.0mph /  6.4km/h 14% 0.00in /  0mm 33.0 W/m2
16:58 71.8 °F /  22.1 °C 19.9 °F /  -6.7 °C 30.24in /  1023.9hPa Calm   4.0mph /  6.4km/h 14% 0.00in /  0mm 30.0 W/m2
17:04 71.4 °F /  21.9 °C 19.8 °F /  -6.8 °C 30.24in /  1023.9hPa SSW 4.0mph /  6.4km/h 4.0mph /  6.4km/h 14% 0.00in /  0mm 28.0 W/m2
17:10 71.1 °F /  21.7 °C 19.4 °F /  -7 °C 30.25in /  1024.3hPa Calm   4.0mph /  6.4km/h 14% 0.00in /  0mm 18.0 W/m2
17:24 70.0 °F /  21.1 °C 16.9 °F /  -8.4 °C 30.25in /  1024.3hPa Calm   3.0mph /  4.8km/h 13% 0.00in /  0mm 9.0 W/m2
17:30 69.4 °F /  20.8 °C 16.5 °F /  -8.6 °C 30.25in /  1024.3hPa SE 2.0mph /  3.2km/h 2.0mph /  3.2km/h 13% 0.00in /  0mm 5.0 W/m2
17:36 68.9 °F /  20.5 °C 16.0 °F /  -8.9 °C 30.25in /  1024.3hPa Calm   2.0mph /  3.2km/h 13% 0.00in /  0mm 0.0 W/m2
17:42 68.4 °F /  20.2 °C 15.6 °F /  -9.1 °C 30.26in /  1024.6hPa Calm   1.0mph /  1.6km/h 13% 0.00in /  0mm 0.0 W/m2
17:48 67.8 °F /  19.9 °C 15.1 °F /  -9.4 °C 30.26in /  1024.6hPa Calm   1.0mph /  1.6km/h 13% 0.00in /  0mm 0.0 W/m2
17:54 67.3 °F /  19.6 °C 14.7 °F /  -9.6 °C 30.27in /  1024.9hPa Calm     13% 0.00in /  0mm 0.0 W/m2
18:00 66.6 °F /  19.2 °C 15.8 °F /  -9 °C 30.27in /  1024.9hPa Calm   1.0mph /  1.6km/h 14% 0.00in /  0mm 0.0 W/m2
18:06 65.8 °F /  18.8 °C 16.9 °F /  -8.4 °C 30.27in /  1024.9hPa Calm     15% 0.00in /  0mm 0.0 W/m2
18:12 65.1 °F /  18.4 °C 16.3 °F /  -8.7 °C 30.28in /  1025.3hPa Calm     15% 0.00in /  0mm 0.0 W/m2
18:18 64.4 °F /  18 °C 14.2 °F /  -9.9 °C 30.28in /  1025.3hPa Calm     14% 0.00in /  0mm 0.0 W/m2
18:24 63.9 °F /  17.7 °C 13.6 °F /  -10.2 °C 30.28in /  1025.3hPa Calm     14% 0.00in /  0mm 0.0 W/m2
18:30 63.1 °F /  17.3 °C 13.1 °F /  -10.5 °C 30.28in /  1025.3hPa Calm     14% 0.00in /  0mm 0.0 W/m2
18:36 62.8 °F /  17.1 °C 14.4 °F /  -9.8 °C 30.29in /  1025.6hPa Calm     15% 0.00in /  0mm 0.0 W/m2
18:42 62.1 °F /  16.7 °C 13.8 °F /  -10.1 °C 30.29in /  1025.6hPa Calm     15% 0.00in /  0mm 0.0 W/m2
18:48 61.5 °F /  16.4 °C 13.5 °F /  -10.3 °C 30.29in /  1025.6hPa Calm   1.0mph /  1.6km/h 15% 0.00in /  0mm 0.0 W/m2
18:54 61.2 °F /  16.2 °C 14.5 °F /  -9.7 °C 30.30in /  1026hPa Calm   1.0mph /  1.6km/h 16% 0.00in /  0mm 0.0 W/m2
19:00 60.8 °F /  16 °C 14.4 °F /  -9.8 °C 30.30in /  1026hPa Calm     16% 0.00in /  0mm 0.0 W/m2
19:06 60.4 °F /  15.8 °C 15.4 °F /  -9.2 °C 30.30in /  1026hPa Calm     17% 0.00in /  0mm 0.0 W/m2
19:12 60.1 °F /  15.6 °C 15.1 °F /  -9.4 °C 30.30in /  1026hPa Calm     17% 0.00in /  0mm 0.0 W/m2
19:18 59.7 °F /  15.4 °C 16.2 °F /  -8.8 °C 30.30in /  1026hPa Calm   1.0mph /  1.6km/h 18% 0.00in /  0mm 0.0 W/m2
19:25 59.7 °F /  15.4 °C 14.9 °F /  -9.5 °C 30.31in /  1026.3hPa Calm   1.0mph /  1.6km/h 17% 0.00in /  0mm 0.0 W/m2
19:31 60.3 °F /  15.7 °C 15.3 °F /  -9.3 °C 30.31in /  1026.3hPa Calm   1.0mph /  1.6km/h 17% 0.00in /  0mm 0.0 W/m2
19:37 60.4 °F /  15.8 °C 15.4 °F /  -9.2 °C 30.31in /  1026.3hPa Calm     17% 0.00in /  0mm 0.0 W/m2
19:43 60.4 °F /  15.8 °C 16.7 °F /  -8.5 °C 30.31in /  1026.3hPa Calm     18% 0.00in /  0mm 0.0 W/m2
19:49 60.1 °F /  15.6 °C 16.3 °F /  -8.7 °C 30.31in /  1026.3hPa Calm     18% 0.00in /  0mm 0.0 W/m2
19:55 59.7 °F /  15.4 °C 16.2 °F /  -8.8 °C 30.31in /  1026.3hPa Calm     18% 0.00in /  0mm 0.0 W/m2
20:01 59.4 °F /  15.2 °C 17.1 °F /  -8.3 °C 30.31in /  1026.3hPa Calm     19% 0.00in /  0mm 0.0 W/m2
20:07 58.6 °F /  14.8 °C 16.5 °F /  -8.6 °C 30.31in /  1026.3hPa Calm     19% 0.00in /  0mm 0.0 W/m2
20:13 58.3 °F /  14.6 °C 17.4 °F /  -8.1 °C 30.31in /  1026.3hPa Calm     20% 0.00in /  0mm 0.0 W/m2
20:19 57.6 °F /  14.2 °C 18.0 °F /  -7.8 °C 30.31in /  1026.3hPa Calm     21% 0.00in /  0mm 0.0 W/m2
20:25 57.0 °F /  13.9 °C 17.4 °F /  -8.1 °C 30.32in /  1026.6hPa Calm     21% 0.00in /  0mm 0.0 W/m2
20:31 56.7 °F /  13.7 °C 18.3 °F /  -7.6 °C 30.32in /  1026.6hPa Calm     22% 0.00in /  0mm 0.0 W/m2
20:37 56.1 °F /  13.4 °C 17.8 °F /  -7.9 °C 30.32in /  1026.6hPa Calm     22% 0.00in /  0mm 0.0 W/m2
20:43 55.6 °F /  13.1 °C 18.3 °F /  -7.6 °C 30.32in /  1026.6hPa Calm     23% 0.00in /  0mm 0.0 W/m2
20:49 55.0 °F /  12.8 °C 18.9 °F /  -7.3 °C 30.32in /  1026.6hPa Calm     24% 0.00in /  0mm 0.0 W/m2
20:55 54.7 °F /  12.6 °C 19.6 °F /  -6.9 °C 30.32in /  1026.6hPa Calm     25% 0.00in /  0mm 0.0 W/m2
21:02 54.1 °F /  12.3 °C 19.0 °F /  -7.2 °C 30.33in /  1027hPa Calm     25% 0.00in /  0mm 0.0 W/m2
21:14 53.8 °F /  12.1 °C 19.8 °F /  -6.8 °C 30.33in /  1027hPa Calm     26% 0.00in /  0mm 0.0 W/m2
21:20 53.4 °F /  11.9 °C 19.4 °F /  -7 °C 30.33in /  1027hPa Calm     26% 0.00in /  0mm 0.0 W/m2
21:26 53.2 °F /  11.8 °C 19.2 °F /  -7.1 °C 30.33in /  1027hPa Calm     26% 0.00in /  0mm 0.0 W/m2
21:32 52.9 °F /  11.6 °C 19.8 °F /  -6.8 °C 30.33in /  1027hPa Calm     27% 0.00in /  0mm 0.0 W/m2
21:38 52.5 °F /  11.4 °C 19.4 °F /  -7 °C 30.33in /  1027hPa Calm     27% 0.00in /  0mm 0.0 W/m2
21:44 52.3 °F /  11.3 °C 19.4 °F /  -7 °C 30.33in /  1027hPa Calm     27% 0.00in /  0mm 0.0 W/m2
21:51 52.2 °F /  11.2 °C 19.2 °F /  -7.1 °C 30.33in /  1027hPa Calm     27% 0.00in /  0mm 0.0 W/m2
21:57 52.0 °F /  11.1 °C 19.9 °F /  -6.7 °C 30.33in /  1027hPa Calm     28% 0.00in /  0mm 0.0 W/m2
22:03 51.6 °F /  10.9 °C 19.6 °F /  -6.9 °C 30.33in /  1027hPa Calm     28% 0.00in /  0mm 0.0 W/m2
22:09 51.3 °F /  10.7 °C 19.2 °F /  -7.1 °C 30.33in /  1027hPa Calm     28% 0.00in /  0mm 0.0 W/m2
22:15 51.1 °F /  10.6 °C 19.9 °F /  -6.7 °C 30.33in /  1027hPa Calm     29% 0.00in /  0mm 0.0 W/m2
22:21 50.7 °F /  10.4 °C 20.5 °F /  -6.4 °C 30.33in /  1027hPa Calm     30% 0.00in /  0mm 0.0 W/m2
22:28 50.4 °F /  10.2 °C 19.2 °F /  -7.1 °C 30.33in /  1027hPa Calm     29% 0.00in /  0mm 0.0 W/m2
22:34 50.2 °F /  10.1 °C 19.9 °F /  -6.7 °C 30.33in /  1027hPa Calm     30% 0.00in /  0mm 0.0 W/m2
22:40 49.8 °F /  9.9 °C 19.6 °F /  -6.9 °C 30.33in /  1027hPa Calm     30% 0.00in /  0mm 0.0 W/m2
22:46 49.6 °F /  9.8 °C 19.4 °F /  -7 °C 30.33in /  1027hPa Calm     30% 0.00in /  0mm 0.0 W/m2
22:52 49.6 °F /  9.8 °C 19.4 °F /  -7 °C 30.33in /  1027hPa Calm     30% 0.00in /  0mm 0.0 W/m2
22:58 49.6 °F /  9.8 °C 19.4 °F /  -7 °C 30.33in /  1027hPa Calm     30% 0.00in /  0mm 0.0 W/m2
23:04 49.6 °F /  9.8 °C 19.4 °F /  -7 °C 30.33in /  1027hPa Calm   1.0mph /  1.6km/h 30% 0.00in /  0mm 0.0 W/m2
23:10 49.8 °F /  9.9 °C 19.6 °F /  -6.9 °C 30.33in /  1027hPa Calm     30% 0.00in /  0mm 0.0 W/m2
23:16 50.2 °F /  10.1 °C 19.9 °F /  -6.7 °C 30.33in /  1027hPa Calm     30% 0.00in /  0mm 0.0 W/m2
23:22 50.4 °F /  10.2 °C 19.2 °F /  -7.1 °C 30.33in /  1027hPa Calm   1.0mph /  1.6km/h 29% 0.00in /  0mm 0.0 W/m2
23:28 50.5 °F /  10.3 °C 19.4 °F /  -7 °C 30.33in /  1027hPa Calm   1.0mph /  1.6km/h 29% 0.00in /  0mm 0.0 W/m2
23:35 50.7 °F /  10.4 °C 19.6 °F /  -6.9 °C 30.33in /  1027hPa Calm     29% 0.00in /  0mm 0.0 W/m2
23:41 50.5 °F /  10.3 °C 19.4 °F /  -7 °C 30.33in /  1027hPa Calm     29% 0.00in /  0mm 0.0 W/m2
23:47 50.2 °F /  10.1 °C 19.9 °F /  -6.7 °C 30.33in /  1027hPa Calm     30% 0.00in /  0mm 0.0 W/m2
23:53 49.6 °F /  9.8 °C 19.4 °F /  -7 °C 30.34in /  1027.3hPa Calm     30% 0.00in /  0mm 0.0 W/m2
23:59 49.3 °F /  9.6 °C 19.9 °F /  -6.7 °C 30.33in /  1027hPa Calm     31% 0.00in /  0mm 0.0 W/m2
Olympia, Windhoek, Namibia
Compliments of Weather Underground - 3 mb